Time;durP1;ratioP1;P1;durP2;ratioP2;P2;SDS_P1;SDS_P2;PMS_P1;PMS_P2;Temp;Humidity;BMP_temperature;BMP_pressure;BME280_temperature;BME280_humidity;BME280_pressure;Samples;Min_cycle;Max_cycle;Signal;HPM_P1;HPM_P2
2022/05/10 00:01:41;;;;;;;6.68;4.03;;;;;;;;;;5016047;28;20205;-43
2022/05/10 00:04:10;;;;;;;9.25;4.22;;;;;;;;;;5015964;28;20535;-42
2022/05/10 00:06:40;;;;;;;6.80;3.58;;;;;;;;;;5048321;28;20201;-42
2022/05/10 00:09:09;;;;;;;7.93;4.07;;;;;;;;;;5016299;28;20231;-42
2022/05/10 00:11:37;;;;;;;9.52;3.95;;;;;;;;;;5015931;28;20209;-43
2022/05/10 00:14:04;;;;;;;9.63;3.97;;;;;;;;;;5014715;28;20259;-42
2022/05/10 00:16:36;;;;;;;8.57;4.18;;;;;;;;;;5015724;28;20704;-42
2022/05/10 00:19:03;;;;;;;11.60;4.80;;;;;;;;;;5016455;28;20194;-41
2022/05/10 00:21:30;;;;;;;9.25;4.63;;;;;;;;;;5014662;28;20202;-43
2022/05/10 00:23:57;;;;;;;8.10;4.38;;;;;;;;;;5047506;28;20255;-42
2022/05/10 00:26:25;;;;;;;15.25;4.93;;;;;;;;;;5016123;28;20224;-42
2022/05/10 00:28:52;;;;;;;8.77;4.70;;;;;;;;;;5015527;28;20640;-42
2022/05/10 00:31:19;;;;;;;8.77;4.43;;;;;;;;;;5015204;28;20208;-42
2022/05/10 00:33:46;;;;;;;7.57;4.53;;;;;;;;;;5015885;28;20202;-42
2022/05/10 00:36:14;;;;;;;7.13;3.47;;;;;;;;;;5014806;28;20197;-42
2022/05/10 00:38:42;;;;;;;6.53;4.35;;;;;;;;;;5015121;28;20228;-42
2022/05/10 00:41:31;;;;;;;9.20;4.10;;;;;;;;;;5046972;28;20532;-42
2022/05/10 00:44:04;;;;;;;8.07;4.18;;;;;;;;;;5015576;28;20210;-42
2022/05/10 00:46:36;;;;;;;7.45;4.38;;;;;;;;;;5015108;28;20561;-43
2022/05/10 00:49:06;;;;;;;7.28;4.20;;;;;;;;;;5047189;28;20209;-43
2022/05/10 00:51:46;;;;;;;7.28;3.50;;;;;;;;;;5015184;28;20696;-42
2022/05/10 00:54:24;;;;;;;8.85;4.10;;;;;;;;;;5015253;28;20212;-42
2022/05/10 00:57:01;;;;;;;5.32;3.83;;;;;;;;;;5014970;28;20205;-42
2022/05/10 00:59:34;;;;;;;10.00;4.07;;;;;;;;;;5014767;28;20576;-42
2022/05/10 01:02:36;;;;;;;8.63;4.00;;;;;;;;;;5046760;28;20193;-42
2022/05/10 01:05:18;;;;;;;6.15;3.92;;;;;;;;;;5014971;28;20291;-42
2022/05/10 01:07:52;;;;;;;8.15;4.20;;;;;;;;;;5013498;28;20651;-42
2022/05/10 01:11:10;;;;;;;6.68;4.18;;;;;;;;;;5046290;28;20565;-41
2022/05/10 01:13:49;;;;;;;8.68;4.20;;;;;;;;;;5006322;28;20212;-43
2022/05/10 01:16:19;;;;;;;9.10;4.05;;;;;;;;;;5047429;28;20581;-42
2022/05/10 01:18:48;;;;;;;6.65;4.10;;;;;;;;;;5014756;28;20276;-42
2022/05/10 01:21:44;;;;;;;9.07;4.45;;;;;;;;;;5014867;28;20259;-42
2022/05/10 01:24:32;;;;;;;7.15;3.85;;;;;;;;;;5021986;28;20205;-42
2022/05/10 01:27:13;;;;;;;7.70;3.75;;;;;;;;;;5034515;28;20204;-42
2022/05/10 01:29:46;;;;;;;8.13;4.10;;;;;;;;;;5033788;28;20199;-42
2022/05/10 01:35:08;;;;;;;7.47;3.97;;;;;;;;;;5034095;28;20204;-42
2022/05/10 01:37:36;;;;;;;7.40;4.43;;;;;;;;;;5033414;28;20221;-42
2022/05/10 01:40:12;;;;;;;9.30;4.00;;;;;;;;;;5033661;28;20235;-42
2022/05/10 01:42:47;;;;;;;6.47;3.88;;;;;;;;;;5033749;28;20205;-43
2022/05/10 01:45:25;;;;;;;6.63;3.78;;;;;;;;;;5033931;28;20196;-42
2022/05/10 01:47:59;;;;;;;6.65;4.35;;;;;;;;;;5033734;28;20501;-42
2022/05/10 01:50:56;;;;;;;7.28;4.20;;;;;;;;;;5034370;28;20668;-42
2022/05/10 01:53:32;;;;;;;8.02;4.32;;;;;;;;;;5034061;28;20200;-42
2022/05/10 01:56:06;;;;;;;8.77;4.50;;;;;;;;;;5034531;28;20200;-41
2022/05/10 01:58:36;;;;;;;9.68;4.35;;;;;;;;;;5034277;28;20232;-42
2022/05/10 02:01:11;;;;;;;11.00;3.97;;;;;;;;;;5035116;28;20232;-42
2022/05/10 02:04:03;;;;;;;7.63;4.10;;;;;;;;;;5033698;28;20204;-42
2022/05/10 02:06:33;;;;;;;5.50;3.80;;;;;;;;;;5014824;28;20203;-43
2022/05/10 02:09:22;;;;;;;7.57;4.15;;;;;;;;;;5013778;28;20202;-45
2022/05/10 02:12:07;;;;;;;6.32;3.70;;;;;;;;;;5014312;28;20280;-41
2022/05/10 02:15:07;;;;;;;7.50;3.92;;;;;;;;;;5013901;28;20189;-43
2022/05/10 02:17:44;;;;;;;4.43;3.13;;;;;;;;;;4991236;28;20225;-42
2022/05/10 02:20:34;;;;;;;8.93;3.80;;;;;;;;;;4994869;28;20205;-42
2022/05/10 02:23:07;;;;;;;6.47;3.40;;;;;;;;;;4996432;28;20207;-42
2022/05/10 02:25:38;;;;;;;14.43;4.10;;;;;;;;;;4996234;28;20202;-42
2022/05/10 02:28:14;;;;;;;9.45;3.72;;;;;;;;;;4979916;28;20566;-43
2022/05/10 02:30:45;;;;;;;7.57;4.35;;;;;;;;;;4996244;28;20201;-41
2022/05/10 02:33:13;;;;;;;7.43;3.53;;;;;;;;;;4979961;28;20555;-41
2022/05/10 02:35:50;;;;;;;7.88;3.90;;;;;;;;;;4979895;28;20264;-42
2022/05/10 02:38:19;;;;;;;7.22;4.00;;;;;;;;;;4995917;28;20672;-41
2022/05/10 02:40:47;;;;;;;9.60;4.43;;;;;;;;;;4995894;28;20587;-42
2022/05/10 02:43:17;;;;;;;9.52;4.07;;;;;;;;;;4995805;28;20294;-42
2022/05/10 02:45:44;;;;;;;8.07;3.67;;;;;;;;;;4996070;28;20260;-42
2022/05/10 02:48:17;;;;;;;10.88;3.88;;;;;;;;;;4995763;28;20596;-42
2022/05/10 02:50:44;;;;;;;10.63;3.58;;;;;;;;;;4995687;28;20284;-42
2022/05/10 02:53:13;;;;;;;10.07;3.78;;;;;;;;;;4995821;28;20285;-42
2022/05/10 02:55:45;;;;;;;6.68;4.03;;;;;;;;;;5016776;28;20271;-43
2022/05/10 02:58:51;;;;;;;9.25;4.00;;;;;;;;;;5049101;28;20213;-42
2022/05/10 03:01:34;;;;;;;6.82;4.10;;;;;;;;;;5016642;28;20651;-41
2022/05/10 03:04:02;;;;;;;7.80;3.47;;;;;;;;;;5017217;28;20190;-42
2022/05/10 03:06:30;;;;;;;9.37;3.77;;;;;;;;;;5016991;28;20213;-41
2022/05/10 03:08:58;;;;;;;9.80;3.65;;;;;;;;;;5016579;28;20209;-42
2022/05/10 03:11:25;;;;;;;4.83;3.43;;;;;;;;;;5015126;28;20201;-42
2022/05/10 03:13:53;;;;;;;7.30;3.47;;;;;;;;;;5016649;28;20201;-42
2022/05/10 03:16:23;;;;;;;10.40;3.67;;;;;;;;;;5016648;28;20271;-42
2022/05/10 03:18:51;;;;;;;5.65;3.50;;;;;;;;;;5016613;28;20259;-44
2022/05/10 03:21:18;;;;;;;6.82;3.20;;;;;;;;;;5016849;28;20343;-42
2022/05/10 03:23:45;;;;;;;6.55;3.50;;;;;;;;;;5016751;28;20206;-42
2022/05/10 03:26:15;;;;;;;10.57;3.92;;;;;;;;;;5016667;28;20201;-42
2022/05/10 03:28:42;;;;;;;12.65;3.42;;;;;;;;;;5016669;28;20216;-41
2022/05/10 03:31:11;;;;;;;8.25;3.58;;;;;;;;;;5015896;28;20221;-42
2022/05/10 03:33:38;;;;;;;7.97;4.20;;;;;;;;;;5016297;28;20636;-42
2022/05/10 03:36:06;;;;;;;6.47;4.13;;;;;;;;;;5016498;28;20209;-42
2022/05/10 03:38:33;;;;;;;7.95;4.40;;;;;;;;;;5016238;28;20558;-42
2022/05/10 03:41:00;;;;;;;10.30;5.03;;;;;;;;;;5016133;28;20683;-42
2022/05/10 03:43:27;;;;;;;10.38;5.75;;;;;;;;;;5017216;28;20244;-42
2022/05/10 03:45:55;;;;;;;10.60;5.57;;;;;;;;;;5016340;28;20206;-42
2022/05/10 03:48:22;;;;;;;10.63;6.60;;;;;;;;;;5016212;28;20703;-43
2022/05/10 03:50:49;;;;;;;13.18;6.07;;;;;;;;;;5015386;28;20259;-42
2022/05/10 03:53:16;;;;;;;14.10;6.57;;;;;;;;;;5015899;28;20205;-42
2022/05/10 03:55:43;;;;;;;16.70;6.63;;;;;;;;;;5016110;28;20267;-44
2022/05/10 03:58:12;;;;;;;11.23;6.55;;;;;;;;;;5016228;28;20233;-44
2022/05/10 04:00:40;;;;;;;12.80;6.75;;;;;;;;;;5017624;28;20201;-44
2022/05/10 04:03:08;;;;;;;21.80;8.30;;;;;;;;;;5032323;28;20229;-44
2022/05/10 04:05:35;;;;;;;21.05;8.00;;;;;;;;;;5028983;28;20687;-42
2022/05/10 04:08:04;;;;;;;13.63;7.35;;;;;;;;;;5054630;28;20243;-42
2022/05/10 04:10:31;;;;;;;18.25;7.88;;;;;;;;;;5042315;28;20240;-45
2022/05/10 04:12:58;;;;;;;15.18;7.25;;;;;;;;;;5041787;28;20224;-43
2022/05/10 04:15:25;;;;;;;14.30;7.40;;;;;;;;;;5045678;28;20236;-44
2022/05/10 04:17:52;;;;;;;14.00;7.57;;;;;;;;;;5051037;28;20251;-42
2022/05/10 04:20:20;;;;;;;13.32;7.93;;;;;;;;;;5055113;28;20228;-43
2022/05/10 04:22:47;;;;;;;17.63;8.38;;;;;;;;;;5054602;28;20305;-43
2022/05/10 04:25:17;;;;;;;14.82;8.45;;;;;;;;;;5044041;28;20263;-42
2022/05/10 04:27:44;;;;;;;16.20;7.63;;;;;;;;;;5030294;28;20228;-43
2022/05/10 04:30:11;;;;;;;14.77;7.32;;;;;;;;;;5034365;28;20272;-42
2022/05/10 04:32:38;;;;;;;14.02;6.90;;;;;;;;;;5033768;28;20585;-42
2022/05/10 04:35:06;;;;;;;8.90;6.32;;;;;;;;;;5034240;28;20236;-42
2022/05/10 04:37:35;;;;;;;12.18;6.97;;;;;;;;;;5034310;28;20302;-43
2022/05/10 04:42:50;;;;;;;8.35;5.53;;;;;;;;;;5033467;28;20236;-42
2022/05/10 04:45:17;;;;;;;12.95;5.55;;;;;;;;;;5034071;28;20286;-43
2022/05/10 04:47:44;;;;;;;12.73;5.78;;;;;;;;;;5049403;28;20228;-42
2022/05/10 04:50:12;;;;;;;12.60;5.15;;;;;;;;;;5053762;28;20244;-43
2022/05/10 04:52:39;;;;;;;10.07;5.00;;;;;;;;;;5054206;28;20248;-43
2022/05/10 04:55:09;;;;;;;11.60;4.63;;;;;;;;;;5030071;28;20231;-42
2022/05/10 04:57:37;;;;;;;13.98;4.47;;;;;;;;;;5034080;28;20228;-43
2022/05/10 05:00:07;;;;;;;8.40;4.35;;;;;;;;;;5033717;28;20259;-43
2022/05/10 05:02:35;;;;;;;9.55;4.47;;;;;;;;;;5033785;28;20232;-43
2022/05/10 05:05:02;;;;;;;8.55;4.22;;;;;;;;;;5033868;28;20232;-45
2022/05/10 05:07:31;;;;;;;6.45;4.28;;;;;;;;;;5034280;28;20225;-42
2022/05/10 05:09:58;;;;;;;9.02;4.43;;;;;;;;;;5033756;28;20741;-43
2022/05/10 05:12:25;;;;;;;9.50;4.35;;;;;;;;;;5033857;28;20224;-44
2022/05/10 05:14:52;;;;;;;7.38;4.38;;;;;;;;;;5034206;28;20239;-43
2022/05/10 05:17:20;;;;;;;9.07;4.97;;;;;;;;;;5045573;28;20243;-43
2022/05/10 05:19:47;;;;;;;11.20;4.70;;;;;;;;;;5053846;28;20293;-43
2022/05/10 05:22:14;;;;;;;17.85;5.38;;;;;;;;;;5053704;28;20227;-43
2022/05/10 05:24:41;;;;;;;7.45;4.82;;;;;;;;;;5053722;28;20741;-43
2022/05/10 05:27:08;;;;;;;7.90;4.45;;;;;;;;;;5053494;28;20220;-43
2022/05/10 05:29:35;;;;;;;9.43;4.90;;;;;;;;;;5054056;28;20345;-42
2022/05/10 05:32:26;;;;;;;6.30;4.47;;;;;;;;;;5053679;28;20323;-43
2022/05/10 05:34:56;;;;;;;6.63;4.28;;;;;;;;;;5052923;28;20224;-43
2022/05/10 05:37:33;;;;;;;8.65;4.10;;;;;;;;;;5052669;28;20220;-43
2022/05/10 05:40:09;;;;;;;11.27;3.80;;;;;;;;;;5053260;28;20247;-44
2022/05/10 05:42:44;;;;;;;9.77;3.88;;;;;;;;;;5053889;28;20227;-43
2022/05/10 05:45:14;;;;;;;5.72;3.72;;;;;;;;;;5054126;28;20212;-44
2022/05/10 05:47:41;;;;;;;7.93;3.72;;;;;;;;;;5054108;28;20274;-44
2022/05/10 05:50:12;;;;;;;5.68;3.50;;;;;;;;;;5052983;28;20236;-43
2022/05/10 05:52:41;;;;;;;6.63;3.50;;;;;;;;;;5053815;28;20200;-43
2022/05/10 05:55:11;;;;;;;6.13;3.67;;;;;;;;;;5056707;28;20207;-43
2022/05/10 05:57:39;;;;;;;6.35;3.60;;;;;;;;;;5056625;28;20204;-43
2022/05/10 06:00:13;;;;;;;4.57;2.95;;;;;;;;;;5056805;28;20232;-43
2022/05/10 06:02:43;;;;;;;5.70;2.83;;;;;;;;;;5056784;28;20649;-43
2022/05/10 06:05:10;;;;;;;5.57;3.03;;;;;;;;;;5057083;28;20283;-43
2022/05/10 06:07:39;;;;;;;6.63;3.10;;;;;;;;;;5057089;28;20521;-44
2022/05/10 06:10:10;;;;;;;3.45;2.47;;;;;;;;;;5057027;28;20212;-43
2022/05/10 06:12:41;;;;;;;4.15;3.00;;;;;;;;;;5057333;28;20208;-43
2022/05/10 06:15:11;;;;;;;5.45;3.40;;;;;;;;;;5040660;28;20208;-43
2022/05/10 06:17:43;;;;;;;6.97;3.00;;;;;;;;;;5057086;28;20219;-43
2022/05/10 06:20:15;;;;;;;5.85;2.72;;;;;;;;;;5056051;28;20596;-44
2022/05/10 06:22:44;;;;;;;5.68;3.17;;;;;;;;;;5056567;28;20278;-43
2022/05/10 06:25:19;;;;;;;5.32;2.50;;;;;;;;;;5040490;28;20290;-43
2022/05/10 06:27:50;;;;;;;7.03;2.53;;;;;;;;;;5056234;28;20200;-43
2022/05/10 06:30:26;;;;;;;5.13;2.05;;;;;;;;;;5041488;28;20573;-43
2022/05/10 06:32:59;;;;;;;3.60;2.00;;;;;;;;;;5072796;28;20533;-43
2022/05/10 06:35:28;;;;;;;5.13;2.00;;;;;;;;;;5056069;28;20286;-43
2022/05/10 06:40:47;;;;;;;5.25;2.50;;;;;;;;;;5056483;28;20208;-43
2022/05/10 06:43:15;;;;;;;4.00;2.03;;;;;;;;;;5039221;28;20196;-43
2022/05/10 06:45:45;;;;;;;5.22;2.30;;;;;;;;;;5040222;28;20203;-43
2022/05/10 06:48:12;;;;;;;8.43;2.72;;;;;;;;;;5056842;28;20254;-43
2022/05/10 06:50:42;;;;;;;4.32;1.60;;;;;;;;;;5072330;28;20236;-43
2022/05/10 06:53:13;;;;;;;4.05;1.80;;;;;;;;;;5006366;28;20197;-43
2022/05/10 06:55:43;;;;;;;2.83;1.90;;;;;;;;;;5055968;28;20207;-43
2022/05/10 06:58:12;;;;;;;3.15;1.70;;;;;;;;;;5055880;28;20733;-43
2022/05/10 07:00:46;;;;;;;4.07;1.80;;;;;;;;;;5022506;28;20216;-43
2022/05/10 07:03:15;;;;;;;2.95;2.15;;;;;;;;;;5056019;28;20196;-44
2022/05/10 07:05:45;;;;;;;11.32;2.15;;;;;;;;;;5038476;28;20208;-44
2022/05/10 07:08:13;;;;;;;4.10;1.90;;;;;;;;;;5055386;28;20210;-44
2022/05/10 07:10:41;;;;;;;2.60;1.55;;;;;;;;;;5055395;28;20214;-43
2022/05/10 07:13:23;;;;;;;6.90;2.10;;;;;;;;;;5055816;28;20200;-44
2022/05/10 07:15:53;;;;;;;4.07;2.00;;;;;;;;;;5056426;28;20215;-43
2022/05/10 07:18:22;;;;;;;2.58;1.98;;;;;;;;;;5055504;28;20208;-44
2022/05/10 07:20:56;;;;;;;4.90;1.98;;;;;;;;;;5056877;28;20223;-44
2022/05/10 07:23:29;;;;;;;5.60;2.00;;;;;;;;;;5023968;28;20645;-43
2022/05/10 07:26:05;;;;;;;3.17;2.08;;;;;;;;;;5042713;28;20274;-43
2022/05/10 07:28:34;;;;;;;2.83;1.65;;;;;;;;;;5056873;28;20219;-44
2022/05/10 07:31:04;;;;;;;5.45;1.80;;;;;;;;;;5039247;28;20258;-43
2022/05/10 07:33:33;;;;;;;4.63;1.90;;;;;;;;;;5055445;28;20643;-44
2022/05/10 07:38:54;;;;;;;6.80;1.65;;;;;;;;;;5055968;28;20635;-44
2022/05/10 07:41:29;;;;;;;2.47;1.60;;;;;;;;;;5024363;28;20257;-43
2022/05/10 07:43:58;;;;;;;2.03;1.17;;;;;;;;;;5054808;28;20569;-43
2022/05/10 07:46:28;;;;;;;8.52;1.52;;;;;;;;;;5055181;28;20218;-45
2022/05/10 07:48:59;;;;;;;3.75;1.60;;;;;;;;;;5038660;28;20203;-44
2022/05/10 07:51:28;;;;;;;7.38;2.00;;;;;;;;;;5054735;28;20596;-43
2022/05/10 07:53:57;;;;;;;9.73;1.83;;;;;;;;;;5054947;28;20277;-43
2022/05/10 07:56:26;;;;;;;29.20;3.05;;;;;;;;;;5054725;28;20224;-44
2022/05/10 07:58:55;;;;;;;2.88;1.58;;;;;;;;;;5054536;28;20203;-44
2022/05/10 08:01:25;;;;;;;5.32;1.48;;;;;;;;;;5054912;28;20253;-43
2022/05/10 08:03:58;;;;;;;6.43;1.50;;;;;;;;;;5055885;28;20208;-43
2022/05/10 08:06:26;;;;;;;3.42;1.33;;;;;;;;;;5038652;28;20192;-43
2022/05/10 08:09:03;;;;;;;2.33;1.40;;;;;;;;;;5054559;28;20627;-43
2022/05/10 08:11:33;;;;;;;5.20;1.30;;;;;;;;;;5070423;28;20301;-43
2022/05/10 08:14:05;;;;;;;3.00;1.35;;;;;;;;;;5054043;28;20626;-44
2022/05/10 08:16:34;;;;;;;1.58;1.10;;;;;;;;;;5070864;28;20199;-43
2022/05/10 08:19:02;;;;;;;3.80;1.40;;;;;;;;;;5021165;28;20196;-43
2022/05/10 08:21:36;;;;;;;4.88;1.35;;;;;;;;;;5038308;28;20211;-43
2022/05/10 08:24:06;;;;;;;4.28;1.10;;;;;;;;;;5070451;28;20204;-44
2022/05/10 08:26:40;;;;;;;2.25;1.20;;;;;;;;;;5039346;28;20555;-43
2022/05/10 08:29:13;;;;;;;2.05;1.35;;;;;;;;;;5054257;28;20193;-43
2022/05/10 08:31:41;;;;;;;7.93;2.00;;;;;;;;;;5053841;28;20649;-43
2022/05/10 08:34:10;;;;;;;9.75;1.77;;;;;;;;;;5037980;28;20215;-43
2022/05/10 08:36:38;;;;;;;3.80;1.08;;;;;;;;;;5053673;28;20258;-43
2022/05/10 08:39:11;;;;;;;2.95;1.42;;;;;;;;;;5005540;28;20200;-43
2022/05/10 08:41:45;;;;;;;1.50;1.00;;;;;;;;;;5053472;28;20199;-43
2022/05/10 08:44:19;;;;;;;2.90;1.33;;;;;;;;;;5054253;28;20203;-44
2022/05/10 08:47:00;;;;;;;4.15;1.63;;;;;;;;;;5054905;28;20204;-43
2022/05/10 08:49:54;;;;;;;2.13;1.27;;;;;;;;;;5054188;28;20196;-43
2022/05/10 08:52:30;;;;;;;4.60;1.45;;;;;;;;;;5054176;28;20661;-44
2022/05/10 08:55:06;;;;;;;5.88;1.08;;;;;;;;;;5038164;28;20204;-43
2022/05/10 08:57:43;;;;;;;4.60;1.60;;;;;;;;;;5037222;28;20204;-43
2022/05/10 09:00:34;;;;;;;3.28;1.30;;;;;;;;;;5053340;28;20561;-44
2022/05/10 09:03:22;;;;;;;3.45;1.40;;;;;;;;;;5036821;28;20273;-43
2022/05/10 09:05:52;;;;;;;2.55;1.40;;;;;;;;;;5036534;28;20204;-44
2022/05/10 09:08:58;;;;;;;2.50;1.23;;;;;;;;;;5020305;28;20635;-44
2022/05/10 09:12:08;;;;;;;4.00;1.25;;;;;;;;;;5020194;28;20200;-43
2022/05/10 09:15:00;;;;;;;7.32;1.58;;;;;;;;;;4987907;28;20214;-44
2022/05/10 09:17:32;;;;;;;3.47;1.20;;;;;;;;;;4989790;28;20295;-44
2022/05/10 09:20:05;;;;;;;5.93;1.30;;;;;;;;;;5020166;28;20658;-44
2022/05/10 09:23:08;;;;;;;3.00;1.25;;;;;;;;;;5026011;28;20258;-43
2022/05/10 09:25:45;;;;;;;2.22;1.23;;;;;;;;;;5039949;28;20204;-45
2022/05/10 09:29:00;;;;;;;2.92;1.30;;;;;;;;;;5055838;28;20211;-43
2022/05/10 09:34:54;;;;;;;1.38;1.15;;;;;;;;;;5058112;28;20623;-43
2022/05/10 09:37:54;;;;;;;4.78;1.75;;;;;;;;;;5041753;28;20286;-43
2022/05/10 09:40:45;;;;;;;5.07;1.75;;;;;;;;;;5040354;28;20227;-44
2022/05/10 09:43:14;;;;;;;2.85;1.33;;;;;;;;;;5058353;28;20619;-44
2022/05/10 09:45:45;;;;;;;3.10;1.27;;;;;;;;;;5073209;28;20526;-43
2022/05/10 09:48:17;;;;;;;2.50;1.30;;;;;;;;;;5056900;28;20287;-43
2022/05/10 09:50:51;;;;;;;3.70;1.50;;;;;;;;;;5025277;28;20224;-43
2022/05/10 09:53:30;;;;;;;3.28;1.50;;;;;;;;;;5056893;28;20196;-43
2022/05/10 09:56:27;;;;;;;2.22;1.20;;;;;;;;;;5041264;28;20230;-44
2022/05/10 09:59:02;;;;;;;2.05;1.40;;;;;;;;;;5058050;28;20296;-44
2022/05/10 10:01:45;;;;;;;3.13;1.40;;;;;;;;;;5056545;28;20223;-44
2022/05/10 10:04:41;;;;;;;2.42;1.40;;;;;;;;;;5057220;28;20230;-44
2022/05/10 10:07:17;;;;;;;4.13;1.30;;;;;;;;;;5020706;28;20204;-43
2022/05/10 10:09:47;;;;;;;2.13;1.30;;;;;;;;;;5019810;28;20204;-43
2022/05/10 10:12:36;;;;;;;7.20;1.52;;;;;;;;;;4987751;28;20209;-44
2022/05/10 10:15:32;;;;;;;3.55;1.30;;;;;;;;;;5020385;28;20216;-43
2022/05/10 10:18:09;;;;;;;3.13;1.20;;;;;;;;;;5020251;28;20212;-44
2022/05/10 10:20:46;;;;;;;5.18;1.25;;;;;;;;;;5019505;28;20246;-44
2022/05/10 10:23:41;;;;;;;7.53;1.20;;;;;;;;;;4972347;28;20204;-44
2022/05/10 10:26:26;;;;;;;1.90;1.17;;;;;;;;;;5020308;28;20303;-43
2022/05/10 10:28:58;;;;;;;2.22;1.20;;;;;;;;;;5019546;28;20201;-43
2022/05/10 10:31:35;;;;;;;3.45;1.25;;;;;;;;;;5019537;28;20212;-44
2022/05/10 10:34:30;;;;;;;1.50;0.90;;;;;;;;;;5019578;28;20280;-43
2022/05/10 10:37:14;;;;;;;2.28;1.10;;;;;;;;;;5036808;28;20632;-43
2022/05/10 10:39:54;;;;;;;2.70;1.15;;;;;;;;;;5054768;28;20657;-43
2022/05/10 10:42:27;;;;;;;3.35;1.15;;;;;;;;;;5057475;28;20208;-43
2022/05/10 10:44:57;;;;;;;3.75;1.45;;;;;;;;;;5056469;28;20520;-43
2022/05/10 10:47:48;;;;;;;2.15;1.30;;;;;;;;;;5057246;28;20542;-44
2022/05/10 10:50:26;;;;;;;2.33;1.20;;;;;;;;;;5056865;28;20231;-43
2022/05/10 10:52:54;;;;;;;4.45;1.40;;;;;;;;;;5056945;28;20265;-44
2022/05/10 10:55:26;;;;;;;3.63;1.23;;;;;;;;;;5057095;28;20207;-46
2022/05/10 10:58:11;;;;;;;1.90;1.20;;;;;;;;;;5056434;28;20512;-44
2022/05/10 11:00:48;;;;;;;2.35;1.27;;;;;;;;;;5056237;28;20231;-44
2022/05/10 11:03:24;;;;;;;7.30;1.48;;;;;;;;;;5056782;28;20249;-43
2022/05/10 11:06:02;;;;;;;4.15;1.45;;;;;;;;;;5057142;28;20212;-43
2022/05/10 11:08:48;;;;;;;2.90;1.20;;;;;;;;;;5056230;28;20215;-44
2022/05/10 11:11:24;;;;;;;3.13;1.40;;;;;;;;;;5056783;28;20208;-43
2022/05/10 11:14:08;;;;;;;2.63;1.23;;;;;;;;;;5056611;28;20703;-43
2022/05/10 11:16:57;;;;;;;4.10;1.10;;;;;;;;;;5056445;28;20192;-43
2022/05/10 11:19:33;;;;;;;6.57;1.27;;;;;;;;;;5055754;28;20269;-44
2022/05/10 11:22:12;;;;;;;5.45;1.50;;;;;;;;;;5056993;28;20211;-43
2022/05/10 11:25:13;;;;;;;1.88;1.17;;;;;;;;;;5056413;28;20247;-43
2022/05/10 11:27:56;;;;;;;6.63;1.20;;;;;;;;;;5056657;28;20283;-43
2022/05/10 11:30:31;;;;;;;2.63;1.20;;;;;;;;;;5056966;28;20302;-44
2022/05/10 11:33:21;;;;;;;3.45;1.30;;;;;;;;;;5055424;28;20212;-43
2022/05/10 11:36:05;;;;;;;4.68;1.27;;;;;;;;;;5055174;28;20196;-43
2022/05/10 11:38:50;;;;;;;3.03;1.33;;;;;;;;;;5056550;28;20273;-44
2022/05/10 11:41:35;;;;;;;3.67;1.38;;;;;;;;;;5056251;28;20251;-43
2022/05/10 11:44:26;;;;;;;3.63;1.40;;;;;;;;;;5055283;28;20638;-44
2022/05/10 11:47:27;;;;;;;3.92;1.10;;;;;;;;;;5055868;28;20196;-44
2022/05/10 11:50:19;;;;;;;1.55;1.10;;;;;;;;;;5035003;28;20678;-44
2022/05/10 11:53:11;;;;;;;4.80;2.00;;;;;;;;;;5047104;28;20336;-46
2022/05/10 11:55:55;;;;;;;2.78;1.40;;;;;;;;;;5047209;28;20225;-45
2022/05/10 11:58:24;;;;;;;4.93;1.45;;;;;;;;;;5046225;28;20694;-43
2022/05/10 12:01:34;;;;;;;2.38;1.13;;;;;;;;;;5045227;28;20239;-45
2022/05/10 12:04:01;;;;;;;4.82;1.63;;;;;;;;;;5039474;28;20568;-44
2022/05/10 12:06:31;;;;;;;2.47;1.23;;;;;;;;;;5034730;28;20274;-43
2022/05/10 12:09:04;;;;;;;3.63;1.10;;;;;;;;;;5034898;28;20232;-44
2022/05/10 12:11:31;;;;;;;2.40;1.10;;;;;;;;;;5029744;28;20578;-48
2022/05/10 12:22:45;;;;;;;2.20;1.20;;;;;;;;;;5034942;28;20283;-46
2022/05/10 12:25:49;;;;;;;2.47;1.08;;;;;;;;;;5034606;28;20229;-46
2022/05/10 12:28:35;;;;;;;2.75;1.50;;;;;;;;;;5034177;28;20229;-47
2022/05/10 12:31:21;;;;;;;3.45;1.15;;;;;;;;;;5034243;28;20216;-48
2022/05/10 12:34:09;;;;;;;1.65;1.00;;;;;;;;;;5034219;28;20225;-47
2022/05/10 12:36:42;;;;;;;4.40;1.30;;;;;;;;;;5029906;28;20287;-50
2022/05/10 12:39:15;;;;;;;10.15;1.25;;;;;;;;;;5033052;28;20216;-48
2022/05/10 12:42:07;;;;;;;3.97;1.23;;;;;;;;;;5034203;28;20252;-49
2022/05/10 12:44:55;;;;;;;2.35;1.10;;;;;;;;;;5034451;28;20221;-51
2022/05/10 12:47:44;;;;;;;4.40;1.23;;;;;;;;;;5019660;28;20229;-49
2022/05/10 12:50:41;;;;;;;4.63;1.10;;;;;;;;;;5026187;28;20615;-49
2022/05/10 12:53:17;;;;;;;5.72;1.52;;;;;;;;;;5030397;28;20220;-50
2022/05/10 12:55:45;;;;;;;8.18;1.88;;;;;;;;;;5032795;28;20240;-47
2022/05/10 12:58:20;;;;;;;7.07;1.35;;;;;;;;;;5032658;28;20257;-49
2022/05/10 13:00:55;;;;;;;6.30;1.58;;;;;;;;;;5032651;28;20228;-48
2022/05/10 13:03:46;;;;;;;3.53;1.52;;;;;;;;;;5030005;28;20231;-48
2022/05/10 13:06:33;;;;;;;2.75;1.63;;;;;;;;;;5050724;28;20664;-49
2022/05/10 13:09:35;;;;;;;7.07;1.40;;;;;;;;;;5031164;28;20225;-50
2022/05/10 13:12:05;;;;;;;2.55;1.27;;;;;;;;;;5031034;28;20306;-46
2022/05/10 13:14:47;;;;;;;3.70;1.30;;;;;;;;;;5033292;28;20217;-46
2022/05/10 13:17:26;;;;;;;4.47;1.40;;;;;;;;;;5030787;28;20217;-45
2022/05/10 13:19:55;;;;;;;2.95;1.30;;;;;;;;;;5033250;28;20224;-46
2022/05/10 13:22:21;;;;;;;3.88;1.50;;;;;;;;;;5033482;28;20816;-45
2022/05/10 13:24:50;;;;;;;4.65;1.42;;;;;;;;;;5032183;28;20663;-46
2022/05/10 13:27:30;;;;;;;3.85;1.30;;;;;;;;;;5032395;28;20224;-47
2022/05/10 13:30:09;;;;;;;5.28;1.40;;;;;;;;;;5033929;28;20212;-45
2022/05/10 13:32:40;;;;;;;7.38;1.63;;;;;;;;;;5033492;28;20227;-45
2022/05/10 13:35:20;;;;;;;3.65;1.63;;;;;;;;;;5034922;28;20225;-47
2022/05/10 13:38:10;;;;;;;6.53;1.80;;;;;;;;;;5032419;28;20216;-45
2022/05/10 13:40:46;;;;;;;3.13;1.50;;;;;;;;;;5030726;28;20220;-45
2022/05/10 13:43:19;;;;;;;2.45;1.20;;;;;;;;;;5033119;28;20215;-45
2022/05/10 13:45:51;;;;;;;2.72;1.60;;;;;;;;;;5033333;28;20247;-46
2022/05/10 13:48:25;;;;;;;3.63;1.50;;;;;;;;;;5032591;28;20559;-45
2022/05/10 13:51:15;;;;;;;5.90;1.70;;;;;;;;;;5030856;28;20588;-47
2022/05/10 13:53:42;;;;;;;3.42;1.40;;;;;;;;;;5011863;28;20299;-46
2022/05/10 13:56:16;;;;;;;2.10;1.10;;;;;;;;;;5011523;28;20237;-46
2022/05/10 13:58:46;;;;;;;3.42;1.40;;;;;;;;;;5009261;28;20676;-45
2022/05/10 14:01:13;;;;;;;2.20;1.20;;;;;;;;;;5011950;28;20225;-44
2022/05/10 14:03:41;;;;;;;3.53;1.33;;;;;;;;;;5013064;28;20221;-44
2022/05/10 14:06:12;;;;;;;4.85;1.65;;;;;;;;;;5012841;28;20215;-44
2022/05/10 14:08:42;;;;;;;2.95;1.40;;;;;;;;;;5012659;28;20186;-45
2022/05/10 14:11:13;;;;;;;2.88;1.15;;;;;;;;;;5013005;28;20209;-44
2022/05/10 14:13:47;;;;;;;6.50;1.40;;;;;;;;;;5012945;28;20203;-45
2022/05/10 14:16:36;;;;;;;2.65;1.27;;;;;;;;;;5016247;28;20189;-46
2022/05/10 14:19:08;;;;;;;8.52;1.60;;;;;;;;;;5016249;28;20209;-45
2022/05/10 14:21:41;;;;;;;4.82;1.50;;;;;;;;;;5001384;28;20224;-44
2022/05/10 14:24:09;;;;;;;4.53;1.25;;;;;;;;;;5015500;28;20293;-44
2022/05/10 14:26:39;;;;;;;3.05;1.42;;;;;;;;;;5015869;28;20201;-43
2022/05/10 14:29:13;;;;;;;74.45;13.10;;;;;;;;;;5016274;28;20220;-44
2022/05/10 14:31:41;;;;;;;5.57;1.80;;;;;;;;;;5020715;28;20208;-44
2022/05/10 14:34:15;;;;;;;3.85;1.20;;;;;;;;;;5037529;28;20205;-44
2022/05/10 14:36:45;;;;;;;2.10;1.30;;;;;;;;;;5037756;28;20204;-43
2022/05/10 14:39:30;;;;;;;4.82;1.33;;;;;;;;;;5037383;28;20627;-44
2022/05/10 14:41:57;;;;;;;6.28;1.52;;;;;;;;;;5037597;28;20204;-44
2022/05/10 14:44:39;;;;;;;4.40;1.38;;;;;;;;;;5037196;28;20200;-43
2022/05/10 14:47:22;;;;;;;1.88;1.20;;;;;;;;;;5028591;28;20205;-44
2022/05/10 14:49:50;;;;;;;4.63;1.50;;;;;;;;;;5027697;28;20209;-44
2022/05/10 14:52:28;;;;;;;4.80;1.52;;;;;;;;;;5037382;28;20208;-44
2022/05/10 14:54:58;;;;;;;5.05;1.63;;;;;;;;;;5037065;28;20210;-44
2022/05/10 14:57:28;;;;;;;2.55;1.27;;;;;;;;;;5021947;28;20210;-44
2022/05/10 14:59:58;;;;;;;3.78;1.50;;;;;;;;;;5017360;28;20214;-44
2022/05/10 15:02:34;;;;;;;6.00;2.00;;;;;;;;;;5020126;28;20232;-45
2022/05/10 15:05:10;;;;;;;4.05;1.58;;;;;;;;;;5037152;28;20271;-44
2022/05/10 15:07:38;;;;;;;6.05;1.88;;;;;;;;;;5036842;28;20208;-46
2022/05/10 15:10:06;;;;;;;3.70;1.48;;;;;;;;;;5036767;28;20581;-44
2022/05/10 15:15:21;;;;;;;2.83;1.42;;;;;;;;;;5036779;28;20200;-44
2022/05/10 15:20:39;;;;;;;7.28;1.67;;;;;;;;;;5032193;28;20562;-45
2022/05/10 15:23:06;;;;;;;4.38;1.30;;;;;;;;;;5016700;28;20202;-44
2022/05/10 15:25:33;;;;;;;6.82;1.50;;;;;;;;;;5015982;28;20205;-44
2022/05/10 15:28:02;;;;;;;7.60;1.88;;;;;;;;;;5016731;28;20225;-44
2022/05/10 15:30:29;;;;;;;6.03;1.42;;;;;;;;;;5016683;28;20201;-45
2022/05/10 15:32:55;;;;;;;34.70;7.90;;;;;;;;;;5016903;28;20209;-45
2022/05/10 15:35:23;;;;;;;9.10;1.92;;;;;;;;;;5031164;28;20259;-44
2022/05/10 15:37:50;;;;;;;6.50;1.80;;;;;;;;;;5036101;28;20623;-44
2022/05/10 15:40:19;;;;;;;8.02;1.67;;;;;;;;;;5023351;28;20221;-44
2022/05/10 15:42:47;;;;;;;8.25;1.50;;;;;;;;;;5030994;28;20228;-44
2022/05/10 15:45:15;;;;;;;4.35;1.63;;;;;;;;;;5016353;28;20288;-45
2022/05/10 15:47:44;;;;;;;6.30;1.67;;;;;;;;;;5016246;28;20198;-44
2022/05/10 15:50:19;;;;;;;6.82;1.58;;;;;;;;;;5028555;28;20240;-46
2022/05/10 15:52:47;;;;;;;2.28;1.42;;;;;;;;;;5036441;28;20200;-44
2022/05/10 15:55:16;;;;;;;7.93;1.70;;;;;;;;;;5035766;28;20200;-44